Time;durP1;ratioP1;P1;durP2;ratioP2;P2;SDS_P1;SDS_P2;PMS_P1;PMS_P2;Temp;Humidity;BMP_temperature;BMP_pressure;BME280_temperature;BME280_humidity;BME280_pressure;Samples;Min_cycle;Max_cycle;Signal;HPM_P1;HPM_P2
2022/12/30 00:00:03;;;;;;;;;2.00;2.00;;;;;20.07;62.88;100145.33;105961;1291;18683;-82
2022/12/30 00:02:31;;;;;;;;;2.00;2.00;;;;;20.08;62.64;100147.80;105980;1294;19280;-82
2022/12/30 00:04:58;;;;;;;;;2.00;2.00;;;;;20.09;62.84;100147.89;105998;1303;21777;-82
2022/12/30 00:07:25;;;;;;;;;2.00;2.00;;;;;20.09;62.80;100147.86;106030;1292;19103;-81
2022/12/30 00:09:53;;;;;;;;;2.00;2.00;;;;;20.10;62.70;100147.04;106005;1300;19309;-81
2022/12/30 00:34:22;;;;;;;;;1.50;1.50;;;;;20.09;62.51;100172.61;106012;1300;19530;-82
2022/12/30 00:36:50;;;;;;;;;2.00;2.00;;;;;20.08;62.39;100172.29;105926;1288;23155;-82
2022/12/30 00:39:17;;;;;;;;;2.00;2.00;;;;;20.07;62.50;100175.25;105936;1299;20018;-82
2022/12/30 00:44:30;;;;;;;;;2.00;2.00;;;;;20.08;62.55;100166.52;105990;1293;18405;-81
2022/12/30 00:46:57;;;;;;;;;1.00;1.00;;;;;20.08;62.31;100167.95;105924;1298;19459;-81
2022/12/30 00:57:40;;;;;;;;;1.00;1.00;;;;;20.07;62.26;100180.61;105975;1292;19284;-82
2022/12/30 01:00:07;;;;;;;;;1.00;1.00;;;;;20.07;62.38;100179.10;105923;1290;18449;-81
2022/12/30 01:02:35;;;;;;;;;2.00;2.00;;;;;20.06;62.11;100179.02;105977;1300;18503;-82
2022/12/30 01:05:03;;;;;;;;;2.00;2.00;;;;;20.05;62.29;100172.45;105926;1292;22878;-81
2022/12/30 01:07:30;;;;;;;;;2.00;2.00;;;;;20.06;62.17;100182.44;105998;1300;18377;-81
2022/12/30 01:09:57;;;;;;;;;1.50;1.50;;;;;20.07;62.07;100188.35;105936;1300;18635;-81
2022/12/30 01:12:25;;;;;;;;;2.00;2.00;;;;;20.07;62.05;100193.20;105935;1300;19515;-81
2022/12/30 01:14:52;;;;;;;;;1.00;1.00;;;;;20.07;62.12;100190.56;105953;1300;19678;-82
2022/12/30 01:17:20;;;;;;;;;;;;;;;20.05;62.06;100187.83;105969;1300;18854;-81
2022/12/30 01:19:47;;;;;;;;;2.00;2.00;;;;;20.06;61.97;100201.23;105980;1296;20032;-81
2022/12/30 01:22:15;;;;;;;;;2.00;2.00;;;;;20.05;61.93;100204.19;105977;1300;18400;-81
2022/12/30 01:24:42;;;;;;;;;2.00;2.00;;;;;20.05;62.00;100200.00;105953;1293;21541;-81
2022/12/30 01:27:10;;;;;;;;;2.00;2.00;;;;;20.05;62.01;100195.65;105960;1300;23299;-81
2022/12/30 01:29:37;;;;;;;;;3.00;3.00;;;;;20.04;62.12;100192.10;105946;1284;23551;-81
2022/12/30 01:32:05;;;;;;;;;2.00;2.00;;;;;20.05;61.88;100189.70;105972;1292;18546;-81
2022/12/30 01:34:32;;;;;;;;;3.00;3.00;;;;;20.05;61.80;100185.00;106009;1300;19288;-81
2022/12/30 01:37:00;;;;;;;;;1.00;1.00;;;;;20.06;62.05;100189.72;105980;1298;18444;-82
2022/12/30 01:39:27;;;;;;;;;2.00;2.00;;;;;20.04;61.88;100184.36;105939;1291;22865;-81
2022/12/30 01:41:55;;;;;;;;;2.00;1.00;;;;;20.04;61.93;100179.29;105902;1284;20936;-81
2022/12/30 01:44:22;;;;;;;;;1.50;1.50;;;;;20.05;61.83;100175.75;105875;1300;19891;-81
2022/12/30 01:46:50;;;;;;;;;1.00;1.00;;;;;20.05;61.79;100181.91;105991;1285;18690;-82
2022/12/30 01:49:17;;;;;;;;;1.00;1.00;;;;;20.04;61.79;100189.27;105987;1300;19631;-81
2022/12/30 01:51:45;;;;;;;;;2.00;2.00;;;;;20.04;61.89;100193.48;105991;1293;18499;-81
2022/12/30 01:54:12;;;;;;;;;1.00;1.00;;;;;20.03;61.68;100200.00;105971;1284;18571;-82
2022/12/30 01:56:39;;;;;;;;;1.00;1.00;;;;;20.03;61.61;100200.96;105937;1291;21666;-81
2022/12/30 01:59:07;;;;;;;;;2.00;2.00;;;;;20.03;61.82;100201.46;105925;1299;18685;-81
2022/12/30 02:01:35;;;;;;;;;1.00;1.00;;;;;20.03;61.84;100195.00;106001;1283;19482;-81
2022/12/30 02:04:02;;;;;;;;;2.00;2.00;;;;;20.03;61.67;100197.85;105960;1285;21081;-81
2022/12/30 02:06:30;;;;;;;;;2.00;2.00;;;;;20.03;61.84;100198.58;105927;1285;21038;-81
2022/12/30 02:08:57;;;;;;;;;3.00;1.00;;;;;20.03;61.76;100197.50;105975;1295;25448;-81
2022/12/30 02:11:25;;;;;;;;;2.00;1.00;;;;;20.02;61.80;100195.42;105969;1299;19807;-81
2022/12/30 02:13:52;;;;;;;;;1.00;1.00;;;;;20.02;61.73;100198.44;105944;1291;22405;-81
2022/12/30 02:16:20;;;;;;;;;2.00;2.00;;;;;20.02;61.71;100199.08;105996;1298;21487;-81
2022/12/30 02:18:47;;;;;;;;;1.00;1.00;;;;;20.02;61.74;100201.96;105981;1285;22771;-81
2022/12/30 02:21:15;;;;;;;;;1.00;1.00;;;;;20.01;61.48;100192.28;105933;1300;21741;-81
2022/12/30 02:23:42;;;;;;;;;1.00;1.00;;;;;20.02;61.52;100192.04;105958;1299;18431;-82
2022/12/30 02:26:09;;;;;;;;;2.00;2.00;;;;;20.02;61.55;100193.96;105953;1274;21200;-81
2022/12/30 02:28:37;;;;;;;;;1.00;1.00;;;;;20.02;61.65;100189.31;105994;1290;21115;-81
2022/12/30 02:31:04;;;;;;;;;1.00;1.00;;;;;20.01;61.57;100190.85;105945;1282;20121;-80
2022/12/30 02:33:32;;;;;;;;;1.50;1.50;;;;;20.01;61.49;100193.95;106012;1298;20764;-81
2022/12/30 02:35:59;;;;;;;;;1.00;1.00;;;;;20.01;61.69;100199.19;106034;1285;18384;-81
2022/12/30 02:38:27;;;;;;;;;2.00;2.00;;;;;20.00;61.46;100202.80;106028;1300;18701;-81
2022/12/30 02:46:25;;;;;;;;;;;;;;;20.00;61.43;100204.23;106048;1283;19575;-81
2022/12/30 02:48:52;;;;;;;;;2.00;2.00;;;;;20.00;61.59;100205.52;105963;1299;19516;-81
2022/12/30 02:54:05;;;;;;;;;2.00;2.00;;;;;19.99;61.52;100209.77;105920;1285;20450;-81
2022/12/30 02:56:32;;;;;;;;;4.00;2.00;;;;;19.99;61.49;100214.69;105949;1291;21657;-82
2022/12/30 03:04:26;;;;;;;;;2.00;2.00;;;;;19.98;61.41;100201.69;105960;1293;21002;-81
2022/12/30 03:06:54;;;;;;;;;1.00;1.00;;;;;19.97;61.23;100202.52;105963;1298;18374;-81
2022/12/30 03:09:21;;;;;;;;;1.00;1.00;;;;;19.97;61.35;100206.69;105958;1291;21729;-81
2022/12/30 03:11:49;;;;;;;;;1.00;1.00;;;;;19.97;61.25;100207.58;105928;1291;19480;-81
2022/12/30 03:14:16;;;;;;;;;3.00;3.00;;;;;19.97;61.56;100205.52;105955;1282;18520;-82
2022/12/30 03:16:44;;;;;;;;;1.00;1.00;;;;;19.97;61.26;100206.02;106029;1299;18875;-81
2022/12/30 03:19:11;;;;;;;;;;;;;;;19.96;61.36;100206.84;105937;1284;19780;-82
2022/12/30 03:21:38;;;;;;;;;1.00;1.00;;;;;19.96;61.28;100217.30;105927;1300;20045;-81
2022/12/30 03:27:07;;;;;;;;;1.00;1.00;;;;;19.96;61.24;100216.64;105951;1292;19508;-81
2022/12/30 03:29:34;;;;;;;;;1.00;1.00;;;;;19.95;61.57;100215.49;105941;1284;18414;-81
2022/12/30 03:32:02;;;;;;;;;1.00;1.00;;;;;19.97;61.39;100217.48;105918;1291;18782;-81
2022/12/30 03:34:29;;;;;;;;;1.00;1.00;;;;;19.96;61.25;100216.34;106027;1300;19355;-81
2022/12/30 03:36:57;;;;;;;;;2.00;2.00;;;;;19.96;61.04;100222.33;105911;1291;18358;-81
2022/12/30 03:39:24;;;;;;;;;1.00;1.00;;;;;19.95;61.20;100224.58;105969;1297;19899;-81
2022/12/30 03:41:53;;;;;;;;;1.00;1.00;;;;;19.95;61.19;100224.70;105953;1284;22907;-81
2022/12/30 03:44:21;;;;;;;;;1.00;1.00;;;;;19.96;61.47;100226.23;105966;1291;18632;-81
2022/12/30 03:46:48;;;;;;;;;1.00;1.00;;;;;19.97;61.25;100228.86;105990;1301;19059;-81
2022/12/30 03:49:16;;;;;;;;;1.00;1.00;;;;;19.95;61.05;100233.41;105998;1298;19475;-81
2022/12/30 03:51:43;;;;;;;;;2.00;2.00;;;;;19.95;61.33;100232.43;105940;1290;18383;-81
2022/12/30 03:54:11;;;;;;;;;1.00;1.00;;;;;19.95;61.08;100234.40;105931;1294;20202;-81
2022/12/30 03:56:38;;;;;;;;;2.00;1.00;;;;;19.94;61.20;100237.70;105999;1300;19628;-81
2022/12/30 03:59:06;;;;;;;;;2.00;2.00;;;;;19.94;61.34;100235.90;105998;1295;22806;-81
2022/12/30 04:01:33;;;;;;;;;1.00;1.00;;;;;19.95;61.31;100235.99;105983;1303;18568;-81
2022/12/30 04:04:01;;;;;;;;;1.50;1.50;;;;;19.94;61.09;100234.44;105973;1282;19650;-81
2022/12/30 04:06:28;;;;;;;;;1.00;1.00;;;;;19.95;61.33;100235.83;106016;1291;21203;-81
2022/12/30 04:08:56;;;;;;;;;1.00;1.00;;;;;19.94;61.03;100240.42;105946;1298;18509;-81
2022/12/30 04:11:23;;;;;;;;;1.00;1.00;;;;;19.94;61.31;100239.67;105968;1300;19648;-81
2022/12/30 04:13:51;;;;;;;;;1.00;1.00;;;;;19.93;61.09;100243.46;106002;1299;18444;-81
2022/12/30 04:16:19;;;;;;;;;1.50;1.50;;;;;19.93;61.15;100249.08;105974;1300;20495;-81
2022/12/30 04:18:47;;;;;;;;;1.00;1.00;;;;;19.94;61.27;100253.77;105967;1291;23529;-81
2022/12/30 04:21:14;;;;;;;;;2.00;2.00;;;;;19.93;61.25;100256.36;105972;1291;19162;-81
2022/12/30 04:23:42;;;;;;;;;2.00;2.00;;;;;19.93;61.24;100267.77;105929;1292;18540;-81
2022/12/30 04:26:09;;;;;;;;;1.00;1.00;;;;;19.93;61.13;100275.26;106021;1300;19181;-81
2022/12/30 04:28:36;;;;;;;;;1.00;1.00;;;;;19.94;61.05;100282.05;105975;1299;18440;-81
2022/12/30 04:31:04;;;;;;;;;1.00;1.00;;;;;19.93;61.22;100281.80;105961;1291;21630;-81
2022/12/30 04:33:31;;;;;;;;;1.00;1.00;;;;;19.94;61.03;100286.95;105995;1289;20718;-80
2022/12/30 04:35:59;;;;;;;;;;;;;;;19.94;61.24;100284.36;106006;1274;21571;-81
2022/12/30 04:38:26;;;;;;;;;1.00;1.00;;;;;19.93;60.96;100287.23;106038;1284;20517;-81
2022/12/30 04:40:54;;;;;;;;;1.00;1.00;;;;;19.93;61.12;100290.63;106021;1291;20392;-82
2022/12/30 04:43:21;;;;;;;;;3.00;2.00;;;;;19.92;61.23;100293.11;106024;1291;18422;-81
2022/12/30 04:45:49;;;;;;;;;2.00;2.00;;;;;19.92;60.96;100294.39;105955;1291;18937;-81
2022/12/30 04:48:16;;;;;;;;;;;;;;;19.93;60.99;100298.64;105966;1282;19340;-81
2022/12/30 04:50:44;;;;;;;;;1.00;1.00;;;;;19.92;60.86;100303.68;106008;1291;18192;-81
2022/12/30 04:53:11;;;;;;;;;2.00;2.00;;;;;19.92;61.06;100305.23;106025;1300;18708;-81
2022/12/30 04:55:39;;;;;;;;;1.00;1.00;;;;;19.91;61.03;100306.67;105980;1292;20829;-81
2022/12/30 04:58:06;;;;;;;;;1.00;1.00;;;;;19.91;61.15;100310.41;105955;1285;22913;-81
2022/12/30 05:00:34;;;;;;;;;2.00;2.00;;;;;19.91;61.02;100313.31;105930;1285;20442;-81
2022/12/30 05:03:01;;;;;;;;;1.00;1.00;;;;;19.92;61.01;100316.90;105915;1291;21017;-81
2022/12/30 05:05:29;;;;;;;;;1.00;1.00;;;;;19.91;61.11;100317.33;105945;1298;18374;-81
2022/12/30 05:07:56;;;;;;;;;1.00;1.00;;;;;19.91;61.07;100321.09;105915;1285;18800;-81
2022/12/30 05:10:24;;;;;;;;;1.00;1.00;;;;;19.91;60.94;100313.89;106019;1298;22873;-81
2022/12/30 05:12:51;;;;;;;;;1.00;1.00;;;;;19.91;60.71;100314.30;105943;1283;23097;-81
2022/12/30 05:15:19;;;;;;;;;1.00;1.00;;;;;19.90;60.94;100314.79;105972;1300;18537;-80
2022/12/30 05:17:46;;;;;;;;;2.00;1.00;;;;;19.90;61.08;100321.14;105982;1301;19272;-81
2022/12/30 05:20:13;;;;;;;;;1.00;1.00;;;;;19.88;60.78;100327.11;105924;1274;22855;-81
2022/12/30 05:22:41;;;;;;;;;1.00;1.00;;;;;19.88;61.11;100331.79;106002;1300;18522;-81
2022/12/30 05:27:54;;;;;;;;;1.00;1.00;;;;;19.88;60.92;100332.55;105932;1293;19904;-81
2022/12/30 05:30:21;;;;;;;;;1.00;1.00;;;;;19.88;60.94;100336.09;105874;1300;104965;-81
2022/12/30 05:32:49;;;;;;;;;2.00;2.00;;;;;19.88;60.85;100339.66;105907;1283;19338;-81
2022/12/30 05:35:16;;;;;;;;;1.00;1.00;;;;;19.89;60.87;100340.67;106001;1297;18414;-81
2022/12/30 05:37:43;;;;;;;;;1.00;1.00;;;;;19.88;61.03;100347.40;106012;1300;18530;-81
2022/12/30 05:40:11;;;;;;;;;;;;;;;19.88;60.69;100349.78;105935;1300;19372;-81
2022/12/30 05:42:38;;;;;;;;;1.00;1.00;;;;;19.88;60.74;100355.09;105902;1293;18454;-81
2022/12/30 05:45:06;;;;;;;;;1.00;1.00;;;;;19.88;60.91;100358.11;105939;1300;18518;-81
2022/12/30 05:47:33;;;;;;;;;1.00;1.00;;;;;19.89;61.08;100365.06;105936;1291;19641;-81
2022/12/30 05:50:01;;;;;;;;;2.00;2.00;;;;;19.90;60.88;100365.16;105900;1299;18401;-81
2022/12/30 05:52:29;;;;;;;;;2.00;2.00;;;;;19.90;60.82;100370.30;105997;1300;18985;-80
2022/12/30 05:54:57;;;;;;;;;1.50;1.50;;;;;19.89;60.84;100378.48;105982;1291;19772;-81
2022/12/30 05:57:24;;;;;;;;;;;;;;;19.89;61.02;100388.16;105981;1284;22072;-81
2022/12/30 05:59:52;;;;;;;;;;;;;;;19.88;60.76;100388.81;105931;1291;18587;-81
2022/12/30 06:02:19;;;;;;;;;1.00;1.00;;;;;19.88;60.93;100392.63;105999;1282;19497;-82
2022/12/30 06:04:47;;;;;;;;;2.00;2.00;;;;;19.87;60.88;100390.35;105962;1299;19063;-81
2022/12/30 06:07:14;;;;;;;;;1.00;1.00;;;;;19.88;60.66;100393.38;105914;1299;18407;-81
2022/12/30 06:09:42;;;;;;;;;1.00;1.00;;;;;19.88;60.84;100393.67;105964;1303;19627;-81
2022/12/30 06:12:09;;;;;;;;;1.00;1.00;;;;;19.88;60.91;100399.65;105935;1300;18923;-80
2022/12/30 06:14:36;;;;;;;;;1.00;1.00;;;;;19.87;60.87;100401.84;105993;1291;21309;-80
2022/12/30 06:17:04;;;;;;;;;1.00;1.00;;;;;19.87;60.81;100403.98;105929;1284;21706;-81
2022/12/30 06:19:31;;;;;;;;;1.00;1.00;;;;;19.86;60.75;100403.54;105979;1300;19136;-81
2022/12/30 06:21:59;;;;;;;;;2.00;2.00;;;;;19.87;60.75;100400.38;105925;1292;18480;-81
2022/12/30 06:24:26;;;;;;;;;1.00;1.00;;;;;19.85;60.85;100404.02;105905;1291;19634;-81
2022/12/30 06:26:54;;;;;;;;;1.00;1.00;;;;;19.86;61.02;100405.58;105981;1298;18765;-81
2022/12/30 06:29:21;;;;;;;;;2.00;2.00;;;;;19.86;60.70;100413.20;106026;1291;18716;-81
2022/12/30 06:31:49;;;;;;;;;;;;;;;19.85;60.82;100417.23;106013;1291;19641;-81
2022/12/30 06:34:16;;;;;;;;;1.00;1.00;;;;;19.86;61.00;100423.97;105913;1283;21591;-81
2022/12/30 06:36:44;;;;;;;;;3.00;3.00;;;;;19.87;60.70;100427.91;105931;1292;18539;-81
2022/12/30 06:39:11;;;;;;;;;2.00;1.00;;;;;19.87;60.33;100440.42;105882;1285;19633;-81
2022/12/30 06:41:39;;;;;;;;;1.00;1.00;;;;;19.88;60.76;100441.61;105938;1298;18397;-81
2022/12/30 06:44:06;;;;;;;;;2.00;2.00;;;;;19.86;60.62;100443.98;105870;1300;22310;-81
2022/12/30 06:46:34;;;;;;;;;1.00;1.00;;;;;19.86;60.58;100453.60;105931;1297;19467;-81
2022/12/30 06:49:01;;;;;;;;;2.00;2.00;;;;;19.86;60.51;100461.33;105935;1297;18271;-81
2022/12/30 06:51:29;;;;;;;;;1.50;1.50;;;;;19.87;60.66;100462.73;105960;1284;18548;-82
2022/12/30 06:53:56;;;;;;;;;1.00;1.00;;;;;19.87;60.67;100466.71;105970;1291;20959;-81
2022/12/30 06:56:24;;;;;;;;;2.00;1.00;;;;;19.88;60.44;100476.77;105955;1275;18400;-81
2022/12/30 06:58:51;;;;;;;;;1.00;1.00;;;;;19.90;60.73;100479.98;105994;1300;18561;-82
2022/12/30 07:01:19;;;;;;;;;2.00;2.00;;;;;19.92;60.88;100484.83;105928;1285;19483;-80
2022/12/30 07:03:46;;;;;;;;;4.00;4.00;;;;;19.87;60.52;100490.46;105949;1298;20298;-80
2022/12/30 07:06:14;;;;;;;;;7.50;7.50;;;;;19.65;58.52;100494.96;105915;1274;20221;-79
2022/12/30 07:08:41;;;;;;;;;7.00;7.00;;;;;19.44;56.02;100498.30;105965;1291;19299;-79
2022/12/30 07:11:08;;;;;;;;;18.00;17.00;;;;;19.30;53.48;100506.25;105917;1291;18742;-80
2022/12/30 07:13:36;;;;;;;;;7.00;7.00;;;;;19.14;51.41;100511.23;105906;1300;18975;-81
2022/12/30 07:16:03;;;;;;;;;7.00;7.00;;;;;19.12;50.58;100512.24;105905;1298;19550;-81
2022/12/30 07:18:31;;;;;;;;;8.00;8.00;;;;;19.23;51.16;100516.39;105964;1290;18341;-82
2022/12/30 07:20:58;;;;;;;;;4.00;4.00;;;;;19.32;51.07;100524.59;105920;1290;19129;-82
2022/12/30 07:23:26;;;;;;;;;8.00;7.00;;;;;19.43;51.34;100528.77;105863;1294;19363;-82
2022/12/30 07:25:53;;;;;;;;;4.00;4.00;;;;;19.48;51.32;100537.42;106044;1293;18724;-83
2022/12/30 07:28:21;;;;;;;;;4.50;4.00;;;;;19.53;51.48;100544.77;105959;1300;18869;-82
2022/12/30 07:30:49;;;;;;;;;5.00;5.00;;;;;19.56;51.80;100558.86;105897;1282;19658;-82
2022/12/30 07:33:16;;;;;;;;;4.00;4.00;;;;;19.59;52.26;100562.92;105984;1292;18447;-81
2022/12/30 07:35:43;;;;;;;;;4.00;4.00;;;;;19.61;52.48;100572.64;105982;1292;18518;-82
2022/12/30 07:38:11;;;;;;;;;2.00;2.00;;;;;19.62;52.71;100574.67;105971;1291;19277;-85
2022/12/30 07:40:38;;;;;;;;;4.00;4.00;;;;;19.64;52.76;100574.89;105823;1291;19128;-83
2022/12/30 07:43:06;;;;;;;;;2.00;2.00;;;;;19.65;53.01;100573.31;105964;1275;18637;-83
2022/12/30 07:45:33;;;;;;;;;2.00;2.00;;;;;19.68;53.10;100579.11;106015;1284;19292;-84
2022/12/30 07:48:01;;;;;;;;;4.00;4.00;;;;;19.72;53.63;100583.73;106085;1292;20748;-82
2022/12/30 07:50:28;;;;;;;;;4.00;2.00;;;;;19.75;53.74;100583.17;105979;1300;19975;-84
2022/12/30 07:52:56;;;;;;;;;2.00;2.00;;;;;19.81;54.33;100584.44;106059;1300;20941;-82
2022/12/30 07:55:23;;;;;;;;;2.00;2.00;;;;;19.84;54.64;100587.02;105990;1300;18374;-83
2022/12/30 07:57:51;;;;;;;;;2.00;2.00;;;;;19.87;55.21;100585.70;106002;1292;21139;-83
2022/12/30 08:00:18;;;;;;;;;2.00;2.00;;;;;19.87;55.61;100587.30;106032;1300;20697;-85
2022/12/30 08:02:46;;;;;;;;;2.00;2.00;;;;;19.87;55.94;100590.70;105956;1290;20077;-88
2022/12/30 08:05:13;;;;;;;;;2.00;2.00;;;;;19.90;56.55;100596.73;106008;1297;20828;-84
2022/12/30 08:07:42;;;;;;;;;2.00;2.00;;;;;19.91;56.74;100598.12;105882;1298;19155;-85
2022/12/30 08:10:09;;;;;;;;;2.00;2.00;;;;;19.91;57.17;100606.08;105792;1298;18455;-84
2022/12/30 08:12:37;;;;;;;;;2.00;2.00;;;;;19.89;57.46;100605.21;105932;1291;21725;-83
2022/12/30 08:15:04;;;;;;;;;2.00;2.00;;;;;19.88;57.68;100606.16;105903;1284;19900;-81
2022/12/30 08:17:32;;;;;;;;;2.00;1.00;;;;;19.88;57.68;100612.35;105915;1284;18516;-82
2022/12/30 08:19:59;;;;;;;;;1.00;1.00;;;;;19.90;57.71;100617.98;105939;1291;21692;-84
2022/12/30 08:22:27;;;;;;;;;1.00;1.00;;;;;19.88;58.10;100620.00;105958;1291;19335;-83
2022/12/30 08:24:55;;;;;;;;;1.00;1.00;;;;;19.89;58.41;100621.19;105934;1282;19573;-84
2022/12/30 08:27:22;;;;;;;;;1.00;1.00;;;;;19.92;58.30;100627.20;105908;1291;18549;-82
2022/12/30 08:29:49;;;;;;;;;1.00;1.00;;;;;19.96;58.34;100631.00;106020;1292;21116;-83
2022/12/30 08:32:19;;;;;;;;;1.50;1.50;;;;;20.00;58.42;100636.80;105944;1291;18313;-81
2022/12/30 08:34:46;;;;;;;;;;;;;;;20.00;58.58;100640.20;105951;1284;19936;-82
2022/12/30 08:37:14;;;;;;;;;2.00;1.00;;;;;20.03;58.58;100642.90;105927;1284;19315;-82
2022/12/30 08:39:41;;;;;;;;;2.00;2.00;;;;;20.06;58.28;100650.63;105962;1292;21741;-89
2022/12/30 08:42:09;;;;;;;;;4.00;2.00;;;;;20.06;58.02;100655.18;106016;1290;20883;-86
2022/12/30 08:44:36;;;;;;;;;2.00;2.00;;;;;20.04;56.89;100657.39;105976;1288;22884;-86
2022/12/30 08:47:04;;;;;;;;;2.00;2.00;;;;;20.01;56.41;100658.05;105904;1291;21629;-88
2022/12/30 08:49:31;;;;;;;;;4.00;4.00;;;;;19.98;55.63;100658.56;105944;1298;18785;-82
2022/12/30 08:51:59;;;;;;;;;4.00;2.00;;;;;19.97;54.66;100662.07;105872;1303;19510;-81
2022/12/30 08:54:26;;;;;;;;;2.00;2.00;;;;;19.99;54.04;100667.86;105884;1299;18397;-83
2022/12/30 08:56:54;;;;;;;;;2.00;2.00;;;;;19.97;53.33;100680.57;105922;1284;18548;-82
2022/12/30 08:59:21;;;;;;;;;2.00;2.00;;;;;19.98;52.92;100679.54;105897;1284;22935;-82
2022/12/30 09:01:49;;;;;;;;;2.00;2.00;;;;;20.02;52.96;100684.37;105943;1299;19619;-82
2022/12/30 09:04:17;;;;;;;;;2.00;2.00;;;;;20.10;53.43;100694.18;105954;1282;18728;-82
2022/12/30 09:06:44;;;;;;;;;2.00;2.00;;;;;20.15;53.25;100701.64;105977;1291;19428;-82
2022/12/30 09:09:12;;;;;;;;;2.00;2.00;;;;;20.17;53.76;100695.80;106033;1284;18462;-83
2022/12/30 09:11:39;;;;;;;;;2.00;2.00;;;;;20.17;53.97;100699.01;106258;1291;18538;-83
2022/12/30 09:14:07;;;;;;;;;2.00;2.00;;;;;20.20;54.25;100702.28;106669;1284;19271;-82
2022/12/30 09:16:34;;;;;;;;;1.00;1.00;;;;;20.20;54.53;100707.05;106648;1298;19174;-83
2022/12/30 09:19:02;;;;;;;;;2.00;1.50;;;;;20.20;54.70;100713.16;106675;1300;18838;-83
2022/12/30 09:21:32;;;;;;;;;1.50;1.50;;;;;20.21;54.98;100714.33;106721;1298;19171;-83
2022/12/30 09:23:59;;;;;;;;;1.50;1.50;;;;;20.22;55.19;100711.91;106586;1284;19785;-84
2022/12/30 09:26:27;;;;;;;;;1.00;1.00;;;;;20.21;55.07;100713.30;105897;1283;18732;-83
2022/12/30 09:28:54;;;;;;;;;1.50;1.00;;;;;20.22;55.51;100719.52;105945;1284;19431;-83
2022/12/30 09:31:22;;;;;;;;;2.00;2.00;;;;;20.21;55.44;100720.69;106043;1284;21935;-88
2022/12/30 09:33:49;;;;;;;;;2.00;2.00;;;;;20.22;55.46;100726.54;106071;1274;18705;-84
2022/12/30 09:36:17;;;;;;;;;1.50;1.50;;;;;20.20;54.85;100722.11;105941;1284;19503;-83
2022/12/30 09:38:45;;;;;;;;;1.67;1.67;;;;;20.20;54.49;100723.20;105882;1284;20946;-84
2022/12/30 09:41:12;;;;;;;;;2.00;2.00;;;;;20.22;54.83;100724.64;105839;1282;20000;-83
2022/12/30 09:43:40;;;;;;;;;1.00;1.00;;;;;20.25;55.15;100727.02;105920;1303;23241;-84
2022/12/30 09:46:07;;;;;;;;;1.00;1.00;;;;;20.25;55.22;100721.45;105941;1282;22674;-84
2022/12/30 09:48:35;;;;;;;;;2.00;2.00;;;;;20.26;55.47;100722.09;105908;1278;20404;-82
2022/12/30 09:51:03;;;;;;;;;2.00;1.00;;;;;20.25;55.58;100722.20;105875;1292;21988;-83
2022/12/30 09:53:30;;;;;;;;;1.00;1.00;;;;;20.23;55.56;100719.33;105909;1284;18681;-83
2022/12/30 09:55:59;;;;;;;;;;;;;;;20.25;55.84;100719.55;105994;1288;20258;-82
2022/12/30 09:58:26;;;;;;;;;1.00;1.00;;;;;20.27;55.76;100719.78;105929;1275;23034;-84
2022/12/30 10:00:54;;;;;;;;;2.00;2.00;;;;;20.28;56.02;100729.48;105847;1275;18418;-83
2022/12/30 10:03:21;;;;;;;;;1.00;1.00;;;;;20.27;55.87;100729.24;105888;1291;20039;-83
2022/12/30 10:05:49;;;;;;;;;2.00;2.00;;;;;20.27;56.11;100727.77;105870;1300;19446;-86
2022/12/30 10:08:16;;;;;;;;;2.00;2.00;;;;;20.25;56.13;100717.51;105880;1283;20835;-85
2022/12/30 10:10:44;;;;;;;;;1.00;1.00;;;;;20.23;56.31;100719.98;105935;1293;18909;-84
2022/12/30 10:13:11;;;;;;;;;1.00;1.00;;;;;20.22;56.25;100720.99;105906;1284;19289;-82
2022/12/30 10:15:39;;;;;;;;;1.00;1.00;;;;;20.21;56.64;100717.83;105948;1291;19185;-83
2022/12/30 10:18:07;;;;;;;;;1.00;1.00;;;;;20.20;56.42;100721.88;105930;1284;21408;-87
2022/12/30 10:20:35;;;;;;;;;1.00;1.00;;;;;20.21;56.76;100729.42;105865;1282;19333;-85
2022/12/30 10:23:02;;;;;;;;;1.00;1.00;;;;;20.21;56.97;100729.55;105939;1294;21164;-88
2022/12/30 10:25:30;;;;;;;;;1.50;1.50;;;;;20.21;57.04;100726.50;105982;1300;18636;-88
2022/12/30 10:27:57;;;;;;;;;1.00;1.00;;;;;20.22;57.20;100729.11;105988;1291;19321;-85
2022/12/30 10:30:25;;;;;;;;;2.00;2.00;;;;;20.22;57.11;100715.75;105947;1300;19855;-88
2022/12/30 10:32:52;;;;;;;;;1.00;1.00;;;;;20.22;57.25;100710.98;105943;1292;18754;-83
2022/12/30 10:35:20;;;;;;;;;4.00;4.00;;;;;20.21;57.57;100708.36;105988;1300;19402;-84
2022/12/30 10:37:47;;;;;;;;;1.00;1.00;;;;;20.21;57.51;100709.08;106035;1299;18382;-86
2022/12/30 10:40:15;;;;;;;;;1.50;1.50;;;;;20.21;57.65;100706.16;105977;1298;26990;-84
2022/12/30 10:42:42;;;;;;;;;1.50;1.50;;;;;20.21;57.70;100713.65;105913;1279;21042;-84
2022/12/30 10:45:10;;;;;;;;;1.00;1.00;;;;;20.21;57.54;100712.89;105947;1284;22106;-80
2022/12/30 10:47:37;;;;;;;;;4.00;2.00;;;;;20.18;57.83;100714.67;105934;1299;21277;-79
2022/12/30 10:50:05;;;;;;;;;2.00;2.00;;;;;20.12;57.22;100707.20;105978;1300;22182;-81
2022/12/30 10:52:32;;;;;;;;;1.00;1.00;;;;;20.05;55.91;100701.74;105983;1285;18489;-82
2022/12/30 10:55:00;;;;;;;;;4.00;4.00;;;;;20.01;54.88;100708.61;105955;1300;18548;-82
2022/12/30 10:57:27;;;;;;;;;1.00;1.00;;;;;20.04;54.80;100706.02;105933;1300;19501;-83
2022/12/30 10:59:55;;;;;;;;;2.00;1.50;;;;;20.07;54.57;100705.98;105931;1292;18740;-83
2022/12/30 11:02:22;;;;;;;;;1.50;1.50;;;;;20.10;54.82;100704.55;105898;1291;18753;-86
2022/12/30 11:04:49;;;;;;;;;2.00;2.00;;;;;20.16;55.13;100704.37;106675;1291;23168;-85
2022/12/30 11:07:17;;;;;;;;;;;;;;;20.14;55.19;100696.44;106673;1299;19916;-82
2022/12/30 11:09:44;;;;;;;;;19.00;17.00;;;;;20.16;55.48;100692.27;106907;1282;19832;-87
2022/12/30 11:14:57;;;;;;;;;16.00;16.00;;;;;20.23;55.66;100698.92;106740;1299;18877;-91
2022/12/30 11:17:24;;;;;;;;;30.00;24.00;;;;;20.22;56.22;100703.52;107135;1277;63709;-64
2022/12/30 11:19:52;;;;;;;;;90.50;69.00;;;;;20.19;56.26;100709.50;105530;1298;22090;-66
2022/12/30 11:22:19;;;;;;;;;87.00;67.00;;;;;20.12;55.51;100714.85;105420;1297;19908;-65
2022/12/30 11:24:47;;;;;;;;;60.50;51.50;;;;;20.03;54.33;100718.20;105398;1297;18590;-64
2022/12/30 11:27:14;;;;;;;;;47.00;44.00;;;;;19.97;53.59;100716.52;105409;1289;22144;-65
2022/12/30 11:29:42;;;;;;;;;43.00;37.00;;;;;19.92;53.04;100717.09;105361;1282;19998;-66
2022/12/30 11:32:09;;;;;;;;;32.00;28.00;;;;;19.92;52.74;100728.45;105362;1275;18711;-65
2022/12/30 11:34:37;;;;;;;;;27.00;27.00;;;;;19.92;52.30;100729.92;105441;1288;19262;-65
2022/12/30 11:37:04;;;;;;;;;36.50;27.50;;;;;19.92;51.81;100727.77;105364;1297;21107;-65
2022/12/30 11:39:32;;;;;;;;;20.00;18.00;;;;;19.92;51.56;100729.10;105363;1289;18618;-65
2022/12/30 11:41:59;;;;;;;;;;;;;;;19.88;50.73;100728.42;105419;1281;19588;-65
2022/12/30 11:44:28;;;;;;;;;21.00;20.00;;;;;19.86;50.52;100727.04;105375;1288;24263;-65
2022/12/30 11:46:55;;;;;;;;;14.00;13.00;;;;;19.83;49.88;100728.80;105454;1297;18843;-65
2022/12/30 11:49:22;;;;;;;;;14.00;13.00;;;;;19.81;49.32;100728.80;105417;1282;20898;-64
2022/12/30 11:51:50;;;;;;;;;15.00;14.00;;;;;19.79;48.65;100725.46;105384;1275;20143;-65
2022/12/30 11:54:18;;;;;;;;;12.00;11.00;;;;;19.75;48.28;100728.46;105409;1274;18621;-65
2022/12/30 11:56:45;;;;;;;;;11.00;10.00;;;;;19.70;48.61;100727.89;105387;1291;19523;-65
2022/12/30 11:59:13;;;;;;;;;10.50;10.50;;;;;19.78;48.27;100734.11;105545;1275;18497;-64
2022/12/30 12:01:40;;;;;;;;;8.00;8.00;;;;;19.85;48.87;100733.29;105433;1297;23303;-65
2022/12/30 12:04:07;;;;;;;;;11.00;9.00;;;;;19.97;49.42;100740.45;105346;1275;20711;-64
2022/12/30 12:06:35;;;;;;;;;8.50;7.50;;;;;19.95;49.78;100739.90;105372;1275;18437;-64
2022/12/30 12:09:02;;;;;;;;;8.00;7.00;;;;;19.95;50.22;100744.37;105328;1297;18803;-64
2022/12/30 12:11:30;;;;;;;;;10.00;10.00;;;;;19.94;50.47;100746.58;105334;1290;23290;-64
2022/12/30 12:13:57;;;;;;;;;5.00;5.00;;;;;19.94;50.87;100742.42;105596;1281;19674;-65